createdAt,value
2018-01-08T00:02:21.270Z,89.50
2018-01-08T00:04:49.569Z,87.80
2018-01-08T00:07:17.125Z,87.80
2018-01-08T00:09:46.362Z,86.90
2018-01-08T00:12:13.905Z,86.80
2018-01-08T00:14:41.424Z,87.10
2018-01-08T00:17:09.732Z,86.30
2018-01-08T00:19:37.282Z,86.30
2018-01-08T00:22:05.572Z,86.40
2018-01-08T00:24:33.118Z,86.40
2018-01-08T00:27:01.406Z,86.30
2018-01-08T00:29:28.961Z,86.20
2018-01-08T00:31:56.492Z,86.10
2018-01-08T00:34:24.047Z,86.80
2018-01-08T00:36:53.316Z,86.10
2018-01-08T00:39:20.831Z,86.10
2018-01-08T00:41:48.377Z,86.60
2018-01-08T00:44:16.661Z,87.80
2018-01-08T00:46:46.231Z,87.60
2018-01-08T00:49:13.953Z,87.60
2018-01-08T00:51:41.538Z,87.90
2018-01-08T00:54:09.095Z,88.20
2018-01-08T00:56:37.619Z,87.80
2018-01-08T00:59:05.144Z,87.50
2018-01-08T01:01:32.700Z,87.00
2018-01-08T01:04:01.470Z,86.90
2018-01-08T01:06:29.946Z,86.70
2018-01-08T01:08:57.486Z,86.70
2018-01-08T01:11:25.011Z,86.60
2018-01-08T01:13:52.562Z,86.40
2018-01-08T01:16:21.055Z,85.70
2018-01-08T01:18:48.646Z,85.70
2018-01-08T01:21:16.177Z,85.30
2018-01-08T01:23:44.490Z,85.60
2018-01-08T01:26:12.100Z,85.60
2018-01-08T01:28:40.387Z,85.70
2018-01-08T01:31:08.710Z,85.80
2018-01-08T01:33:36.226Z,85.80
2018-01-08T01:36:04.537Z,85.70
2018-01-08T01:38:32.067Z,85.70
2018-01-08T01:41:00.391Z,85.40
2018-01-08T01:43:27.918Z,85.40
2018-01-08T01:45:55.479Z,85.80
2018-01-08T01:48:22.998Z,85.80
2018-01-08T01:50:50.615Z,85.90
2018-01-08T01:53:18.164Z,86.80
2018-01-08T01:55:45.960Z,86.60
2018-01-08T01:58:14.871Z,87.10
2018-01-08T02:00:42.442Z,86.50
2018-01-08T02:03:10.182Z,85.90
2018-01-08T02:05:37.708Z,86.90
2018-01-08T02:08:05.266Z,86.20
2018-01-08T02:10:32.790Z,86.20
2018-01-08T02:13:01.078Z,88.10
2018-01-08T02:15:28.638Z,88.10
2018-01-08T02:17:57.344Z,87.20
2018-01-08T02:20:24.919Z,86.60
2018-01-08T02:22:52.603Z,86.90
2018-01-08T02:25:20.192Z,86.70
2018-01-08T02:27:49.451Z,85.80
2018-01-08T02:30:17.087Z,85.80
2018-01-08T02:32:44.610Z,86.30
2018-01-08T02:35:12.934Z,86.00
2018-01-08T02:37:40.486Z,86.00
2018-01-08T02:40:08.016Z,86.30
2018-01-08T02:42:36.323Z,85.80
2018-01-08T02:45:03.871Z,85.90
2018-01-08T02:47:31.421Z,85.90
2018-01-08T02:49:59.907Z,86.10
2018-01-08T02:52:27.447Z,86.10
2018-01-08T02:54:55.761Z,86.20
2018-01-08T02:57:24.255Z,86.20
2018-01-08T02:59:51.807Z,85.50
2018-01-08T03:02:19.326Z,86.30
2018-01-08T03:04:47.636Z,86.40
2018-01-08T03:07:15.335Z,86.40
2018-01-08T03:09:42.886Z,85.80
2018-01-08T03:12:10.403Z,85.70
2018-01-08T03:14:38.896Z,86.10
2018-01-08T03:17:06.442Z,85.60
2018-01-08T03:19:33.962Z,85.90
2018-01-08T03:22:02.279Z,86.00
2018-01-08T03:24:29.806Z,85.40
2018-01-08T03:26:57.367Z,85.60
2018-01-08T03:29:24.890Z,85.10
2018-01-08T03:31:52.504Z,85.00
2018-01-08T03:34:21.047Z,84.80
2018-01-08T03:36:48.602Z,85.10
2018-01-08T03:39:16.127Z,86.00
2018-01-08T03:41:43.651Z,86.80
2018-01-08T03:44:11.203Z,86.60
2018-01-08T03:46:38.736Z,86.80
2018-01-08T03:49:06.279Z,87.20
2018-01-08T03:51:33.811Z,88.00
2018-01-08T03:54:01.367Z,88.20
2018-01-08T03:56:28.887Z,87.40
2018-01-08T03:58:57.236Z,86.70
2018-01-08T04:01:24.759Z,86.70
2018-01-08T04:03:52.290Z,86.20
2018-01-08T04:06:19.842Z,86.30
2018-01-08T04:08:48.122Z,86.10
2018-01-08T04:11:15.671Z,86.10
2018-01-08T04:13:43.192Z,85.80
2018-01-08T04:16:10.739Z,85.70
2018-01-08T04:18:38.262Z,86.00
2018-01-08T04:21:07.781Z,85.40
2018-01-08T04:23:35.306Z,85.70
2018-01-08T04:26:02.879Z,85.60
2018-01-08T04:28:30.418Z,85.60
2018-01-08T04:30:57.943Z,85.80
2018-01-08T04:33:25.489Z,85.60
2018-01-08T04:35:53.002Z,86.90
2018-01-08T04:38:20.550Z,86.80
2018-01-08T04:40:48.084Z,87.00
2018-01-08T04:43:15.627Z,86.80
2018-01-08T04:45:43.166Z,86.30
2018-01-08T04:48:10.703Z,86.00
2018-01-08T04:50:39.215Z,86.60
2018-01-08T04:53:06.735Z,86.30
2018-01-08T04:55:34.295Z,86.20
2018-01-08T04:58:01.819Z,86.50
2018-01-08T05:00:29.362Z,86.40
2018-01-08T05:02:56.874Z,85.70
2018-01-08T05:05:24.422Z,85.00
2018-01-08T05:07:51.956Z,85.00
2018-01-08T05:10:19.475Z,85.30
2018-01-08T05:12:47.018Z,85.00
2018-01-08T05:15:14.546Z,85.00
2018-01-08T05:17:42.091Z,85.20
2018-01-08T05:20:09.616Z,85.30
2018-01-08T05:22:37.159Z,85.40
2018-01-08T05:25:06.367Z,85.80
2018-01-08T05:27:33.902Z,85.70
2018-01-08T05:30:01.454Z,86.30
2018-01-08T05:32:29.933Z,86.30
2018-01-08T05:34:57.491Z,86.30
2018-01-08T05:37:25.019Z,85.40
2018-01-08T05:39:52.567Z,85.60
2018-01-08T05:47:53.075Z,86.60
2018-01-08T05:50:20.629Z,86.40
2018-01-08T05:52:48.164Z,88.40
2018-01-08T05:55:17.679Z,88.00
2018-01-08T05:57:45.220Z,88.20
2018-01-08T06:00:12.748Z,87.30
2018-01-08T06:02:40.298Z,87.00
2018-01-08T06:05:07.823Z,87.00
2018-01-08T06:07:35.375Z,86.40
2018-01-08T06:10:02.904Z,85.70
2018-01-08T06:12:34.109Z,86.10
2018-01-08T06:15:11.080Z,86.90
2018-01-08T06:17:38.700Z,86.90
2018-01-08T06:20:06.324Z,86.50
2018-01-08T06:22:33.844Z,87.50
2018-01-08T06:25:02.168Z,88.00
2018-01-08T06:27:29.728Z,87.90
2018-01-08T06:29:57.272Z,87.20
2018-01-08T06:32:24.828Z,86.70
2018-01-08T06:34:53.142Z,87.00
2018-01-08T06:37:20.667Z,86.90
2018-01-08T06:39:48.217Z,88.20
2018-01-08T06:42:16.525Z,88.90
2018-01-08T06:44:44.063Z,88.80
2018-01-08T06:47:11.619Z,89.20
2018-01-08T06:49:40.242Z,89.00
2018-01-08T06:52:07.827Z,89.10
2018-01-08T06:54:36.312Z,89.40
2018-01-08T06:57:04.826Z,89.70
2018-01-08T06:59:32.366Z,89.80
2018-01-08T07:02:00.688Z,89.20
2018-01-08T07:04:28.252Z,89.10
2018-01-08T07:06:56.751Z,89.60
2018-01-08T07:09:24.302Z,90.30
2018-01-08T07:11:51.831Z,90.00
2018-01-08T07:14:19.386Z,89.90
2018-01-08T07:16:46.915Z,88.70
2018-01-08T07:19:16.438Z,89.10
2018-01-08T07:21:43.982Z,88.20
2018-01-08T07:24:14.227Z,88.70
2018-01-08T07:26:41.747Z,88.70
2018-01-08T07:29:09.281Z,90.00
2018-01-08T07:31:36.838Z,90.30
2018-01-08T07:34:04.368Z,89.40
2018-01-08T07:36:32.884Z,88.20
2018-01-08T07:39:00.404Z,88.10
2018-01-08T07:41:27.955Z,89.60
2018-01-08T07:43:55.475Z,89.50
2018-01-08T07:46:23.023Z,88.10
2018-01-08T07:48:50.563Z,87.80
2018-01-08T07:51:18.104Z,88.20
2018-01-08T07:53:45.656Z,89.80
2018-01-08T07:56:13.191Z,89.20
2018-01-08T07:58:41.517Z,87.70
2018-01-08T08:01:09.999Z,87.60
2018-01-08T08:03:37.557Z,88.00
2018-01-08T08:06:06.068Z,88.60
2018-01-08T08:08:33.626Z,89.40
2018-01-08T08:11:01.162Z,88.40
2018-01-08T08:13:28.688Z,88.00
2018-01-08T08:15:56.243Z,88.40
2018-01-08T08:18:23.835Z,88.30
2018-01-08T08:20:52.347Z,87.90
2018-01-08T08:23:20.823Z,88.20
2018-01-08T08:25:48.387Z,87.30
2018-01-08T08:28:15.915Z,88.30
2018-01-08T08:30:43.467Z,88.70
2018-01-08T08:33:10.992Z,89.10
2018-01-08T08:35:39.323Z,87.70
2018-01-08T08:38:06.847Z,87.70
2018-01-08T08:40:34.387Z,88.40
2018-01-08T08:43:02.710Z,86.70
2018-01-08T08:45:30.268Z,86.60
2018-01-08T08:47:57.819Z,88.30
2018-01-08T08:50:25.340Z,87.70
2018-01-08T08:52:52.899Z,88.90
2018-01-08T08:55:21.194Z,88.80
2018-01-08T08:57:49.785Z,88.80
2018-01-08T09:00:17.476Z,88.40
2018-01-08T09:02:45.055Z,88.10
2018-01-08T09:05:12.584Z,88.30
2018-01-08T09:07:40.111Z,88.70
2018-01-08T09:10:09.638Z,88.10
2018-01-08T09:12:37.167Z,89.30
2018-01-08T09:15:04.739Z,88.80
2018-01-08T09:17:32.262Z,88.60
2018-01-08T09:19:59.816Z,89.10
2018-01-08T09:22:27.348Z,89.40
2018-01-08T09:24:54.911Z,89.10
2018-01-08T09:27:22.452Z,89.70
2018-01-08T09:29:50.015Z,88.90
2018-01-08T09:32:18.335Z,88.50
2018-01-08T09:34:45.862Z,88.10
2018-01-08T09:37:13.412Z,88.10
2018-01-08T09:39:41.154Z,88.30
2018-01-08T09:42:09.695Z,87.80
2018-01-08T09:44:37.215Z,87.50
2018-01-08T09:47:04.766Z,86.50
2018-01-08T09:49:32.324Z,85.30
2018-01-08T09:51:59.886Z,87.60
2018-01-08T09:54:27.421Z,87.00
2018-01-08T09:56:54.975Z,86.50
2018-01-08T09:59:22.506Z,87.60
2018-01-08T10:01:50.036Z,88.60
2018-01-08T10:04:31.408Z,90.10
2018-01-08T10:07:10.820Z,89.80
2018-01-08T10:09:50.262Z,89.70
2018-01-08T10:12:29.694Z,88.80
2018-01-08T10:15:09.159Z,88.30
2018-01-08T10:17:48.468Z,87.60
2018-01-08T10:20:16.121Z,90.00
2018-01-08T10:22:43.647Z,87.90
2018-01-08T10:25:11.203Z,87.80
2018-01-08T10:27:38.778Z,86.40
2018-01-08T10:30:06.337Z,85.60
2018-01-08T10:32:33.866Z,85.00
2018-01-08T10:35:03.383Z,85.20
2018-01-08T10:37:30.916Z,85.00
2018-01-08T10:39:58.484Z,85.00
2018-01-08T10:42:31.695Z,87.70
2018-01-08T10:45:04.862Z,87.10
2018-01-08T10:47:37.963Z,86.30
2018-01-08T10:50:12.034Z,87.90
2018-01-08T10:52:39.583Z,87.80
2018-01-08T10:55:07.147Z,86.60
2018-01-08T10:57:34.710Z,87.20
2018-01-08T11:00:02.250Z,87.60
2018-01-08T11:02:36.242Z,90.00
2018-01-08T11:05:04.543Z,87.50
2018-01-08T11:07:32.102Z,87.50
2018-01-08T11:10:00.597Z,88.00
2018-01-08T11:12:28.170Z,85.50
2018-01-08T11:14:55.690Z,85.60
2018-01-08T11:17:23.393Z,87.10
2018-01-08T11:19:50.920Z,88.30
2018-01-08T11:22:18.471Z,86.60
2018-01-08T11:24:46.003Z,86.10
2018-01-08T11:27:13.562Z,84.80
2018-01-08T11:29:41.083Z,85.10
2018-01-08T11:32:08.607Z,85.90
2018-01-08T11:34:36.206Z,86.40
2018-01-08T11:37:04.663Z,90.20
2018-01-08T11:39:32.218Z,90.00
2018-01-08T11:41:59.754Z,89.30
2018-01-08T11:44:27.307Z,89.20
2018-01-08T11:46:54.840Z,88.50
2018-01-08T11:49:22.391Z,88.10
2018-01-08T11:51:49.915Z,87.30
2018-01-08T11:54:17.492Z,87.70
2018-01-08T11:56:45.023Z,84.80
2018-01-08T11:59:12.567Z,84.90
2018-01-08T12:01:40.127Z,84.60
2018-01-08T12:04:07.671Z,85.10
2018-01-08T12:06:37.162Z,83.70
2018-01-08T12:09:05.675Z,82.90
2018-01-08T12:11:33.241Z,82.60
2018-01-08T12:14:00.763Z,82.70
2018-01-08T12:16:28.337Z,82.60
2018-01-08T12:18:55.862Z,81.80
2018-01-08T12:21:23.443Z,82.30
2018-01-08T12:23:50.978Z,82.10
2018-01-08T12:26:18.560Z,82.10
2018-01-08T12:28:46.111Z,81.20
2018-01-08T12:31:13.643Z,81.30
2018-01-08T12:33:41.190Z,82.40
2018-01-08T12:36:08.728Z,81.00
2018-01-08T12:38:38.220Z,82.10
2018-01-08T12:41:06.523Z,84.20
2018-01-08T12:43:34.070Z,84.20
2018-01-08T12:46:01.627Z,83.20
2018-01-08T12:48:31.124Z,81.50
2018-01-08T12:50:59.414Z,82.00
2018-01-08T12:53:28.113Z,81.90
2018-01-08T12:55:55.745Z,83.60
2018-01-08T12:58:24.993Z,86.00
2018-01-08T13:00:52.543Z,85.90
2018-01-08T13:03:20.947Z,83.50
2018-01-08T13:05:48.523Z,80.80
2018-01-08T13:08:16.050Z,80.40
2018-01-08T13:10:43.815Z,79.90
2018-01-08T13:13:11.595Z,81.30
2018-01-08T13:15:39.130Z,80.50
2018-01-08T13:18:06.723Z,80.00
2018-01-08T13:20:34.499Z,80.50
2018-01-08T13:23:02.084Z,79.80
2018-01-08T13:25:29.626Z,80.50
2018-01-08T13:27:57.195Z,81.20
2018-01-08T13:30:25.478Z,83.00
2018-01-08T13:32:53.155Z,82.90
2018-01-08T13:35:20.689Z,82.80
2018-01-08T13:37:48.234Z,83.30
2018-01-08T13:40:16.895Z,84.20
2018-01-08T13:42:44.431Z,83.50
2018-01-08T13:45:11.979Z,83.60
2018-01-08T13:47:39.514Z,84.60
2018-01-08T13:50:07.077Z,84.50
2018-01-08T13:52:34.609Z,85.20
2018-01-08T13:55:02.191Z,85.60
2018-01-08T13:57:29.727Z,86.90
2018-01-08T13:59:58.056Z,85.40
2018-01-08T14:02:25.596Z,85.30
2018-01-08T14:04:53.162Z,85.90
2018-01-08T14:07:20.697Z,86.70
2018-01-08T14:09:48.264Z,86.60
2018-01-08T14:12:16.763Z,87.10
2018-01-08T14:14:44.324Z,85.70
2018-01-08T14:17:11.869Z,86.40
2018-01-08T14:19:39.394Z,87.10
2018-01-08T14:22:06.971Z,87.00
2018-01-08T14:24:35.443Z,85.90
2018-01-08T14:27:03.766Z,88.10
2018-01-08T14:29:31.386Z,88.10
2018-01-08T14:31:59.716Z,88.60
2018-01-08T14:34:27.252Z,88.60
2018-01-08T14:36:54.815Z,88.30
2018-01-08T14:39:22.651Z,88.90
2018-01-08T14:41:50.228Z,88.40
2018-01-08T14:44:17.788Z,87.00
2018-01-08T14:46:45.315Z,86.10
2018-01-08T14:49:13.935Z,85.10
2018-01-08T14:51:41.544Z,85.20
2018-01-08T14:54:09.126Z,86.30
2018-01-08T14:56:38.470Z,86.00
2018-01-08T14:59:06.030Z,86.00
2018-01-08T15:01:33.573Z,86.30
2018-01-08T15:04:01.242Z,86.00
2018-01-08T15:06:29.030Z,86.30
2018-01-08T15:08:57.576Z,86.70
2018-01-08T15:11:25.141Z,85.50
2018-01-08T15:13:52.918Z,85.70
2018-01-08T15:16:20.676Z,85.50
2018-01-08T15:18:48.307Z,85.90
2018-01-08T15:21:15.886Z,86.00
2018-01-08T15:23:43.432Z,86.70
2018-01-08T15:26:10.995Z,86.80
2018-01-08T15:28:38.523Z,86.60
2018-01-08T15:31:06.097Z,86.40
2018-01-08T15:33:34.404Z,85.80
2018-01-08T15:36:02.932Z,85.80
2018-01-08T15:38:30.650Z,86.20
2018-01-08T15:40:58.413Z,86.90
2018-01-08T15:43:25.968Z,86.80
2018-01-08T15:45:53.737Z,86.60
2018-01-08T15:48:21.535Z,86.50
2018-01-08T15:50:49.075Z,86.20
2018-01-08T15:53:16.625Z,86.50
2018-01-08T15:55:44.207Z,86.60
2018-01-08T15:58:11.952Z,85.90
2018-01-08T16:00:39.920Z,86.70
2018-01-08T16:03:09.440Z,87.40
2018-01-08T16:05:36.964Z,86.80
2018-01-08T16:08:04.659Z,86.70
2018-01-08T16:10:34.251Z,85.80
2018-01-08T16:13:01.785Z,87.90
2018-01-08T16:15:29.359Z,89.30
2018-01-08T16:17:56.883Z,90.20
2018-01-08T16:20:24.446Z,90.90
2018-01-08T16:22:51.971Z,91.10
2018-01-08T16:25:19.563Z,91.40
2018-01-08T16:27:48.166Z,90.60
2018-01-08T16:30:16.713Z,90.60
2018-01-08T16:32:44.292Z,90.50
2018-01-08T16:35:11.821Z,90.20
2018-01-08T16:37:39.466Z,89.50
2018-01-08T16:40:08.075Z,89.30
2018-01-08T16:42:35.672Z,89.10
2018-01-08T16:45:03.215Z,88.90
2018-01-08T16:47:32.443Z,88.10
2018-01-08T16:49:59.975Z,88.10
2018-01-08T16:52:27.540Z,87.30
2018-01-08T16:54:55.201Z,87.30
2018-01-08T16:57:23.954Z,87.00
2018-01-08T16:59:51.743Z,86.70
2018-01-08T17:02:19.288Z,86.90
2018-01-08T17:04:47.125Z,86.70
2018-01-08T17:07:14.715Z,86.90
2018-01-08T17:09:42.327Z,88.40
2018-01-08T17:12:09.881Z,88.10
2018-01-08T17:14:37.638Z,87.40
2018-01-08T17:17:05.203Z,87.60
2018-01-08T17:19:32.768Z,87.60
2018-01-08T17:22:00.364Z,87.30
2018-01-08T17:24:28.007Z,87.50
2018-01-08T17:26:56.599Z,87.90
2018-01-08T17:29:24.161Z,89.30
2018-01-08T17:31:51.723Z,90.10
2018-01-08T17:34:20.196Z,88.40
2018-01-08T17:36:47.817Z,88.40
2018-01-08T17:39:15.507Z,87.70
2018-01-08T17:41:43.146Z,87.00
2018-01-08T17:44:10.695Z,86.70
2018-01-08T17:46:38.262Z,86.80
2018-01-08T17:49:06.811Z,86.40
2018-01-08T17:51:35.467Z,86.90
2018-01-08T17:54:03.201Z,87.70
2018-01-08T17:56:30.885Z,87.70
2018-01-08T17:58:59.528Z,88.10
2018-01-08T18:01:28.121Z,88.40
2018-01-08T18:03:55.706Z,89.10
2018-01-08T18:06:23.442Z,90.00
2018-01-08T18:08:51.083Z,89.40
2018-01-08T18:11:18.655Z,90.00
2018-01-08T18:13:48.171Z,88.90
2018-01-08T18:16:15.970Z,88.10
2018-01-08T18:18:43.497Z,87.80
2018-01-08T18:21:11.995Z,86.80
2018-01-08T18:23:39.569Z,87.20
2018-01-08T18:26:07.643Z,87.70
2018-01-08T18:28:35.205Z,87.50
2018-01-08T18:31:03.849Z,87.90
2018-01-08T18:33:31.391Z,88.20
2018-01-08T18:35:59.043Z,88.20
2018-01-08T18:38:26.653Z,88.60
2018-01-08T18:40:54.295Z,87.90
2018-01-08T18:43:21.843Z,88.30
2018-01-08T18:45:49.395Z,88.80
2018-01-08T18:48:17.069Z,88.30
2018-01-08T18:50:45.926Z,87.50
2018-01-08T18:53:14.265Z,85.20
2018-01-08T18:55:41.799Z,85.20
2018-01-08T18:58:09.369Z,85.50
2018-01-08T19:00:36.964Z,86.10
2018-01-08T19:03:04.514Z,86.20
2018-01-08T19:05:33.058Z,88.00
2018-01-08T19:08:00.659Z,87.90
2018-01-08T19:10:28.191Z,89.00
2018-01-08T19:12:55.716Z,88.30
2018-01-08T19:15:23.415Z,88.50
2018-01-08T19:17:50.938Z,88.40
2018-01-08T19:20:18.536Z,88.70
2018-01-08T19:22:46.070Z,89.40
2018-01-08T19:25:13.627Z,89.40
2018-01-08T19:27:41.183Z,89.10
2018-01-08T19:30:08.741Z,88.90
2018-01-08T19:32:36.262Z,89.30
2018-01-08T19:35:04.619Z,89.40
2018-01-08T19:37:32.154Z,89.30
2018-01-08T19:39:59.828Z,88.90
2018-01-08T19:42:27.363Z,90.40
2018-01-08T19:44:55.103Z,90.00
2018-01-08T19:47:24.567Z,89.50
2018-01-08T19:49:53.358Z,89.50
2018-01-08T19:52:20.930Z,89.10
2018-01-08T19:54:48.491Z,88.90
2018-01-08T19:57:16.353Z,89.00
2018-01-08T19:59:43.878Z,89.10
2018-01-08T20:02:11.463Z,89.70
2018-01-08T20:04:39.168Z,88.20
2018-01-08T20:07:07.671Z,88.70
2018-01-08T20:09:35.227Z,88.20
2018-01-08T20:12:02.779Z,87.70
2018-01-08T20:14:30.306Z,87.70
2018-01-08T20:16:57.826Z,88.10
2018-01-08T20:19:26.406Z,87.60
2018-01-08T20:21:53.929Z,90.10
2018-01-08T20:24:21.474Z,89.60
2018-01-08T20:26:50.022Z,88.70
2018-01-08T20:29:17.581Z,88.60
2018-01-08T20:31:45.115Z,88.40
2018-01-08T20:34:12.714Z,87.70
2018-01-08T20:36:40.264Z,86.80
2018-01-08T20:39:07.792Z,86.70
2018-01-08T20:41:35.335Z,86.40
2018-01-08T20:44:03.843Z,86.90
2018-01-08T20:46:31.403Z,87.40
2018-01-08T20:48:59.285Z,87.90
2018-01-08T20:51:27.842Z,89.30
2018-01-08T20:53:55.459Z,90.30
2018-01-08T20:56:23.751Z,89.80
2018-01-08T20:58:52.359Z,90.10
2018-01-08T21:01:19.880Z,89.10
2018-01-08T21:03:48.203Z,88.10
2018-01-08T21:06:15.743Z,88.10
2018-01-08T21:08:45.378Z,88.00
2018-01-08T21:11:13.895Z,87.30
2018-01-08T21:13:42.215Z,88.10
2018-01-08T21:16:09.761Z,88.10
2018-01-08T21:18:38.271Z,88.70
2018-01-08T21:21:05.823Z,88.20
2018-01-08T21:23:33.351Z,87.70
2018-01-08T21:26:00.966Z,88.00
2018-01-08T21:28:28.491Z,89.80
2018-01-08T21:30:56.047Z,90.20
2018-01-08T21:33:23.814Z,90.20
2018-01-08T21:35:51.598Z,89.40
2018-01-08T21:38:19.146Z,90.20
2018-01-08T21:40:46.690Z,90.00
2018-01-08T21:43:14.241Z,91.00
2018-01-08T21:45:41.819Z,90.70
2018-01-08T21:48:09.375Z,90.90
2018-01-08T21:50:37.870Z,90.80
2018-01-08T21:53:05.435Z,90.90
2018-01-08T21:55:34.077Z,90.60
2018-01-08T21:58:01.635Z,90.70
2018-01-08T22:00:29.203Z,90.90
2018-01-08T22:02:56.761Z,90.20
2018-01-08T22:05:24.320Z,90.30
2018-01-08T22:07:51.856Z,90.20
2018-01-08T22:10:19.436Z,89.20
2018-01-08T22:12:46.980Z,90.20
2018-01-08T22:15:14.540Z,89.70
2018-01-08T22:17:43.390Z,89.40
2018-01-08T22:20:10.950Z,89.00
2018-01-08T22:22:38.669Z,89.40
2018-01-08T22:25:06.690Z,89.50
2018-01-08T22:27:34.222Z,89.30
2018-01-08T22:30:01.798Z,88.40
2018-01-08T22:32:29.332Z,88.70
2018-01-08T22:34:58.827Z,88.60
2018-01-08T22:37:26.380Z,89.60
2018-01-08T22:39:54.144Z,90.60
2018-01-08T22:42:22.047Z,90.60
2018-01-08T22:44:50.047Z,90.60
2018-01-08T22:47:17.633Z,90.90
2018-01-08T22:49:45.159Z,92.00
2018-01-08T22:52:14.747Z,92.50
2018-01-08T22:54:42.280Z,92.50
2018-01-08T22:57:09.890Z,92.30
2018-01-08T22:59:37.421Z,92.50
2018-01-08T23:02:05.012Z,92.40
2018-01-08T23:04:32.572Z,91.90
2018-01-08T23:07:00.868Z,92.40
2018-01-08T23:09:28.427Z,92.40
2018-01-08T23:11:55.950Z,92.20
2018-01-08T23:14:23.542Z,91.80
2018-01-08T23:16:51.067Z,93.60
2018-01-08T23:19:18.876Z,92.00
2018-01-08T23:21:46.407Z,93.90
2018-01-08T23:24:14.698Z,94.80
2018-01-08T23:26:42.258Z,94.80
2018-01-08T23:29:09.808Z,94.90
2018-01-08T23:31:37.365Z,95.80
2018-01-08T23:34:04.890Z,94.80
2018-01-08T23:36:33.434Z,94.10
2018-01-08T23:39:00.962Z,93.60
2018-01-08T23:41:30.459Z,93.80
2018-01-08T23:43:58.747Z,93.20
2018-01-08T23:46:26.305Z,93.20
2018-01-08T23:48:54.597Z,92.70
2018-01-08T23:51:22.930Z,92.60
2018-01-08T23:53:50.470Z,92.60
2018-01-08T23:56:17.999Z,92.60
2018-01-08T23:58:47.519Z,92.50
